Impacts TAF Board INFO
FOR SITUATIONAL AWARENESS. NOT TO BE USED FOR FLIGHT PLANNING PURPOSES.
IDs:

KDFW - Dallas-Ft Worth Intl, TX, US

Issued at 1129 UTC 19 Jan 2018
Updated at 1320 UTC 19 Jan 2018
Potential Impact None Slight Moderate High
Time1253Z 19/14Z 19/15Z 19/16Z 19/17Z 19/18Z 19/19Z 19/20Z 19/21Z 19/22Z 19/23Z 20/00Z 20/01Z 20/02Z>>
Type OBS PRVL
  [TEMP]  
PRVL
  [TEMP]  
PRVL PRVL PRVL PRVL PRVL PRVL PRVL PRVL PRVL PRVL PRVL
VIS 10 >6 >6 >6 >6 >6 >6 >6 >6 >6 >6 >6 >6 >6
CIG 21 --
  [24]  
--
  [24]  
-- -- -- -- -- -- -- -- -- -- --
Cover BKN SCT
  [BKN]  
SCT
  [BKN]  
SCT SCT SCT SCT SCT SCT SCT SCT SCT SCT SCT
FltCat MVFR VFR
  [MVFR]  
VFR
  [MVFR]  
VFR VFR VFR VFR VFR VFR VFR VFR VFR VFR VFR
WX -- --
  [--]  
--
  [--]  
-- -- -- -- -- -- -- -- -- -- --
WDir 170 180
[180]
180
[180]
180 180 180 180 180 180 180 180 180 180 180
WSpd 12 9
  [9]  
9
  [9]  
17 17 17 17 17 17 17 17 17 17 17
WGst -- --
  [--]  
--
  [--]  
-- -- -- -- -- -- -- -- -- -- --

Raw TAF
KDFW 191129Z 1912/2018 18009KT P6SM SCT024
  TEMPO 1912/1916 BKN024
  FM191600 18017KT P6SM SCT040
  FM200300 17015KT P6SM BKN025
  FM200800 17013KT 5SM BR BKN011


Raw METAR
KDFW 191253Z 17012KT 10SM BKN021 06/M06 A3019 RMK AO2 SLP224 BKN V SCT T00561056 $
KDFW 191241Z COR 18012KT 10SM SCT021 05/M06 A3019 RMK AO2 SCT V BKN T00501056 $
KDFW 191209Z 17010KT 10SM BKN021 05/M06 A3020 RMK AO2 BKN V SCT T00501056 $
KDFW 191153Z 17010KT 10SM SCT021 04/M06 A3020 RMK AO2 SLP227 SCT V BKN T00441056 10050 20028 58017 $
KDFW 191116Z 17007KT 10SM SCT024 04/M06 A3020 RMK AO2 T00391061 $
KDFW 191053Z 16010KT 10SM BKN024 05/M06 A3021 RMK AO2 SLP231 T00501061 $

METAR Board
Radar Display
Forecast Discussion

FOR SITUATIONAL AWARENESS. NOT TO BE USED FOR FLIGHT PLANNING PURPOSES.